createdAt,value
2022-10-06T00:01:02.073Z,101669.63
2022-10-06T00:03:32.566Z,101675.56
2022-10-06T00:06:02.919Z,101679.38
2022-10-06T00:08:33.374Z,101676.09
2022-10-06T00:11:03.775Z,101687.43
2022-10-06T00:13:34.217Z,101692.86
2022-10-06T00:16:04.712Z,101700.35
2022-10-06T00:18:35.111Z,101694.09
2022-10-06T00:21:05.581Z,101697.42
2022-10-06T00:23:36.062Z,101702.54
2022-10-06T00:26:06.511Z,101705.09
2022-10-06T00:28:36.978Z,101713.47
2022-10-06T00:31:07.351Z,101716.34
2022-10-06T00:33:37.800Z,101710.84
2022-10-06T00:36:08.240Z,101717.84
2022-10-06T00:38:38.666Z,101730.84
2022-10-06T00:41:09.105Z,101736.73
2022-10-06T00:43:39.784Z,101739.12
2022-10-06T00:46:10.126Z,101746.56
2022-10-06T00:48:40.526Z,101748.42
2022-10-06T00:51:10.969Z,101757.54
2022-10-06T00:53:41.504Z,101762.19
2022-10-06T00:56:11.851Z,101767.57
2022-10-06T00:58:42.330Z,101768.67
2022-10-06T01:01:12.860Z,101776.14
2022-10-06T01:03:43.418Z,101779.09
2022-10-06T01:06:13.687Z,101786.70
2022-10-06T01:08:44.163Z,101793.36
2022-10-06T01:11:14.588Z,101793.58
2022-10-06T01:13:45.150Z,101802.83
2022-10-06T01:16:15.568Z,101806.14
2022-10-06T01:18:45.996Z,101813.84
2022-10-06T01:21:16.428Z,101818.16
2022-10-06T01:23:46.929Z,101829.47
2022-10-06T01:26:17.518Z,101825.97
2022-10-06T01:28:47.892Z,101839.85
2022-10-06T01:31:18.397Z,101839.64
2022-10-06T01:33:48.797Z,101847.21
2022-10-06T01:36:19.263Z,101851.78
2022-10-06T01:38:49.724Z,101849.27
2022-10-06T01:41:20.167Z,101848.55
2022-10-06T01:43:50.640Z,101851.14
2022-10-06T01:46:21.165Z,101850.04
2022-10-06T01:48:51.732Z,101852.31
2022-10-06T01:51:22.148Z,101854.81
2022-10-06T01:53:52.561Z,101865.41
2022-10-06T01:56:22.970Z,101870.83
2022-10-06T01:58:53.464Z,101870.80
2022-10-06T02:01:23.941Z,101870.32
2022-10-06T02:03:54.414Z,101878.58
2022-10-06T02:06:24.881Z,101886.50
2022-10-06T02:08:55.325Z,101884.87
2022-10-06T02:11:25.771Z,101887.52
2022-10-06T02:13:56.238Z,101892.95
2022-10-06T02:16:26.826Z,101895.51
2022-10-06T02:18:57.215Z,101904.98
2022-10-06T02:21:27.663Z,101908.78
2022-10-06T02:23:58.143Z,101902.78
2022-10-06T02:26:28.630Z,101908.70
2022-10-06T02:28:59.093Z,101925.49
2022-10-06T02:31:29.775Z,101932.96
2022-10-06T02:34:00.048Z,101936.36
2022-10-06T02:36:30.501Z,101936.38
2022-10-06T02:39:00.989Z,101953.95
2022-10-06T02:41:31.464Z,101949.69
2022-10-06T02:44:02.026Z,101949.20
2022-10-06T02:46:32.534Z,101944.46
2022-10-06T02:49:02.964Z,101943.39
2022-10-06T02:51:33.409Z,101957.66
2022-10-06T02:54:03.911Z,101966.49
2022-10-06T02:56:34.372Z,101965.75
2022-10-06T02:59:04.889Z,101977.53
2022-10-06T03:01:35.389Z,101984.63
2022-10-06T03:04:05.873Z,101984.08
2022-10-06T03:06:36.347Z,101985.79
2022-10-06T03:09:06.843Z,101997.70
2022-10-06T03:11:37.323Z,102004.69
2022-10-06T03:14:07.852Z,102004.61
2022-10-06T03:16:38.394Z,102005.15
2022-10-06T03:19:08.832Z,102018.45
2022-10-06T03:21:39.360Z,102019.33
2022-10-06T03:24:09.778Z,102024.89
2022-10-06T03:26:40.247Z,102030.16
2022-10-06T03:29:11.921Z,102031.05
2022-10-06T03:31:41.353Z,102041.09
2022-10-06T03:34:11.738Z,102038.43
2022-10-06T03:36:42.335Z,102044.98
2022-10-06T03:39:12.725Z,102041.69
2022-10-06T03:41:43.204Z,102047.71
2022-10-06T03:44:13.727Z,102053.19
2022-10-06T03:46:44.270Z,102055.76
2022-10-06T03:49:14.850Z,102059.00
2022-10-06T03:51:45.223Z,102065.25
2022-10-06T03:54:15.742Z,102066.79
2022-10-06T03:56:46.207Z,102076.38
2022-10-06T03:59:16.797Z,102076.16
2022-10-06T04:01:47.351Z,102081.63
2022-10-06T04:04:17.776Z,102092.50
2022-10-06T04:06:48.381Z,102098.31
2022-10-06T04:09:18.785Z,102107.97
2022-10-06T04:11:49.273Z,102106.74
2022-10-06T04:14:19.792Z,102106.38
2022-10-06T04:16:50.325Z,102110.33
2022-10-06T04:19:20.805Z,102113.89
2022-10-06T04:21:51.297Z,102111.57
2022-10-06T04:24:21.895Z,102124.03
2022-10-06T04:26:52.954Z,102127.60
2022-10-06T04:29:23.195Z,102137.86
2022-10-06T04:31:53.539Z,102142.26
2022-10-06T04:34:23.922Z,102146.22
2022-10-06T04:36:54.510Z,102153.06
2022-10-06T04:39:24.977Z,102153.47
2022-10-06T04:41:55.384Z,102153.21
2022-10-06T04:44:25.901Z,102155.91
2022-10-06T04:46:56.646Z,102163.61
2022-10-06T04:49:26.942Z,102167.19
2022-10-06T04:51:57.504Z,102171.81
2022-10-06T04:54:33.403Z,102172.73
2022-10-06T04:56:58.553Z,102179.08
2022-10-06T04:59:28.930Z,102183.07
2022-10-06T05:01:59.564Z,102186.22
2022-10-06T05:04:29.959Z,102192.98
2022-10-06T05:07:00.455Z,102199.56
2022-10-06T05:09:30.975Z,102204.46
2022-10-06T05:12:01.461Z,102210.62
2022-10-06T05:14:31.980Z,102215.77
2022-10-06T05:17:02.465Z,102219.96
2022-10-06T05:19:33.323Z,102228.66
2022-10-06T05:22:03.502Z,102237.40
2022-10-06T05:24:34.043Z,102242.57
2022-10-06T05:27:04.543Z,102244.73
2022-10-06T05:29:35.086Z,102247.58
2022-10-06T05:32:05.656Z,102249.87
2022-10-06T05:34:36.211Z,102253.22
2022-10-06T05:37:06.657Z,102262.00
2022-10-06T05:39:37.178Z,102266.78
2022-10-06T05:42:07.717Z,102271.69
2022-10-06T05:44:38.315Z,102273.28
2022-10-06T05:47:08.764Z,102273.75
2022-10-06T05:49:39.393Z,102278.87
2022-10-06T05:52:09.819Z,102281.76
2022-10-06T05:54:40.351Z,102287.39
2022-10-06T05:57:10.867Z,102291.84
2022-10-06T05:59:41.401Z,102292.66
2022-10-06T06:02:12.105Z,102302.23
2022-10-06T06:04:42.478Z,102307.30
2022-10-06T06:07:12.988Z,102314.76
2022-10-06T06:09:43.503Z,102314.80
2022-10-06T06:12:14.019Z,102320.57
2022-10-06T06:14:44.560Z,102326.23
2022-10-06T06:17:15.078Z,102332.30
2022-10-06T06:19:45.656Z,102332.97
2022-10-06T06:22:15.943Z,102336.21
2022-10-06T06:24:46.476Z,102338.53
2022-10-06T06:27:16.933Z,102340.11
2022-10-06T06:29:47.481Z,102341.42
2022-10-06T06:32:17.992Z,102346.36
2022-10-06T06:34:48.559Z,102355.44
2022-10-06T06:37:19.069Z,102359.88
2022-10-06T06:39:49.621Z,102360.45
2022-10-06T06:42:20.130Z,102363.98
2022-10-06T06:44:50.693Z,102367.36
2022-10-06T06:47:23.129Z,102369.10
2022-10-06T06:49:51.875Z,102371.20
2022-10-06T06:52:22.276Z,102370.06
2022-10-06T06:54:52.937Z,102377.96
2022-10-06T06:57:23.343Z,102384.36
2022-10-06T06:59:53.884Z,102388.57
2022-10-06T07:02:24.478Z,102393.72
2022-10-06T07:04:54.623Z,102393.83
2022-10-06T07:07:25.139Z,102395.50
2022-10-06T07:09:55.668Z,102399.79
2022-10-06T07:12:26.198Z,102400.54
2022-10-06T07:14:56.861Z,102409.08
2022-10-06T07:17:27.280Z,102415.64
2022-10-06T07:19:57.852Z,102414.88
2022-10-06T07:22:28.365Z,102419.55
2022-10-06T07:24:58.977Z,102421.47
2022-10-06T07:27:29.415Z,102424.51
2022-10-06T07:29:59.979Z,102430.27
2022-10-06T07:32:30.492Z,102442.47
2022-10-06T07:35:01.116Z,102440.31
2022-10-06T07:37:31.531Z,102447.14
2022-10-06T07:40:02.069Z,102451.33
2022-10-06T07:42:32.572Z,102456.06
2022-10-06T07:45:03.116Z,102455.57
2022-10-06T07:47:33.603Z,102459.89
2022-10-06T07:50:04.276Z,102465.47
2022-10-06T07:52:34.698Z,102469.81
2022-10-06T07:55:05.163Z,102474.25
2022-10-06T07:57:35.650Z,102475.59
2022-10-06T08:00:06.175Z,102482.62
2022-10-06T08:02:36.792Z,102486.38
2022-10-06T08:05:07.236Z,102492.56
2022-10-06T08:07:37.783Z,102495.08
2022-10-06T08:10:08.256Z,102501.11
2022-10-06T08:12:38.783Z,102501.07
2022-10-06T08:15:09.292Z,102505.75
2022-10-06T08:17:39.758Z,102511.55
2022-10-06T08:20:10.326Z,102505.74
2022-10-06T08:22:40.772Z,102514.36
2022-10-06T08:25:11.722Z,102514.11
2022-10-06T08:27:41.796Z,102522.16
2022-10-06T08:30:12.305Z,102525.68
2022-10-06T08:32:42.785Z,102530.13
2022-10-06T08:35:13.364Z,102537.72
2022-10-06T08:37:43.830Z,102547.65
2022-10-06T08:40:14.467Z,102547.29
2022-10-06T08:42:44.986Z,102553.84
2022-10-06T08:45:15.527Z,102553.94
2022-10-06T08:47:46.144Z,102561.39
2022-10-06T08:50:16.626Z,102564.64
2022-10-06T08:52:47.218Z,102570.92
2022-10-06T08:55:17.667Z,102571.48
2022-10-06T08:57:48.151Z,102576.70
2022-10-06T09:00:21.300Z,102582.74
2022-10-06T09:02:49.271Z,102584.33
2022-10-06T09:05:19.625Z,102587.25
2022-10-06T09:07:50.085Z,102590.63
2022-10-06T09:10:20.673Z,102594.77
2022-10-06T09:12:51.046Z,102602.41
2022-10-06T09:15:21.534Z,102595.36
2022-10-06T09:17:51.995Z,102598.00
2022-10-06T09:20:22.477Z,102599.43
2022-10-06T09:22:52.929Z,102595.07
2022-10-06T09:27:53.852Z,102600.81
2022-10-06T09:30:24.330Z,102609.56
2022-10-06T09:32:54.805Z,102612.99
2022-10-06T09:35:25.257Z,102611.50
2022-10-06T09:37:55.784Z,102617.48
2022-10-06T09:40:26.168Z,102617.75
2022-10-06T09:42:56.635Z,102613.97
2022-10-06T09:45:27.103Z,102615.51
2022-10-06T09:47:57.707Z,102622.37
2022-10-06T09:50:28.112Z,102622.08
2022-10-06T09:52:58.554Z,102631.60
2022-10-06T09:55:28.916Z,102632.98
2022-10-06T09:57:59.373Z,102636.29
2022-10-06T10:00:30.065Z,102644.13
2022-10-06T10:03:00.295Z,102643.01
2022-10-06T10:05:30.727Z,102645.87
2022-10-06T10:08:01.316Z,102652.06
2022-10-06T10:10:31.695Z,102648.37
2022-10-06T10:13:02.149Z,102656.21
2022-10-06T10:15:32.569Z,102655.07
2022-10-06T10:18:03.223Z,102655.38
2022-10-06T10:20:33.488Z,102657.67
2022-10-06T10:23:03.936Z,102659.15
2022-10-06T10:25:34.367Z,102658.33
2022-10-06T10:28:04.900Z,102666.42
2022-10-06T10:30:35.272Z,102663.68
2022-10-06T10:33:05.723Z,102664.96
2022-10-06T10:35:35.890Z,102659.06
2022-10-06T10:38:07.603Z,102658.73
2022-10-06T10:40:36.797Z,102654.28
2022-10-06T10:43:07.249Z,102654.04
2022-10-06T10:45:37.709Z,102659.21
2022-10-06T10:48:08.181Z,102659.74
2022-10-06T10:50:38.607Z,102663.08
2022-10-06T10:53:09.179Z,102666.36
2022-10-06T10:55:39.506Z,102662.17
2022-10-06T10:58:10.053Z,102665.77
2022-10-06T11:00:40.452Z,102670.52
2022-10-06T11:03:10.843Z,102672.61
2022-10-06T11:05:41.250Z,102681.22
2022-10-06T11:08:11.741Z,102679.56
2022-10-06T11:10:42.133Z,102679.94
2022-10-06T11:13:12.718Z,102687.47
2022-10-06T11:15:43.041Z,102689.00
2022-10-06T11:18:14.691Z,102688.57
2022-10-06T11:20:43.916Z,102687.87
2022-10-06T11:23:14.436Z,102689.05
2022-10-06T11:25:44.852Z,102690.05
2022-10-06T11:28:15.281Z,102682.94
2022-10-06T11:30:45.659Z,102683.50
2022-10-06T11:33:16.102Z,102685.22
2022-10-06T11:35:46.494Z,102686.49
2022-10-06T11:38:17.019Z,102686.96
2022-10-06T11:40:47.287Z,102686.46
2022-10-06T11:43:17.711Z,102684.81
2022-10-06T11:45:48.242Z,102689.00
2022-10-06T11:48:18.554Z,102681.24
2022-10-06T11:50:48.934Z,102677.12
2022-10-06T11:53:19.367Z,102673.49
2022-10-06T11:55:49.746Z,102672.31
2022-10-06T11:58:41.863Z,102671.65
2022-10-06T12:00:50.568Z,102672.17
2022-10-06T12:03:21.045Z,102674.83
2022-10-06T12:05:56.822Z,102682.20
2022-10-06T12:08:21.775Z,102674.01
2022-10-06T12:10:52.233Z,102684.48
2022-10-06T12:14:01.660Z,102677.64
2022-10-06T12:17:08.665Z,102678.08
2022-10-06T12:18:23.386Z,102677.48
2022-10-06T12:20:53.771Z,102676.03
2022-10-06T12:23:24.210Z,102675.49
2022-10-06T12:25:54.598Z,102674.87
2022-10-06T12:28:25.111Z,102668.41
2022-10-06T12:30:55.447Z,102671.98
2022-10-06T12:33:25.848Z,102671.54
2022-10-06T12:35:56.253Z,102678.46
2022-10-06T12:38:26.753Z,102675.77
2022-10-06T12:40:57.068Z,102673.52
2022-10-06T12:43:27.506Z,102672.81
2022-10-06T12:45:57.958Z,102669.38
2022-10-06T12:48:28.339Z,102670.51
2022-10-06T12:50:58.735Z,102673.52
2022-10-06T12:53:29.209Z,102667.78
2022-10-06T12:55:59.542Z,102662.01
2022-10-06T12:58:30.033Z,102660.49
2022-10-06T13:01:00.373Z,102661.92
2022-10-06T13:03:30.728Z,102652.91
2022-10-06T13:06:01.104Z,102653.58
2022-10-06T13:08:31.547Z,102644.85
2022-10-06T13:11:01.889Z,102652.59
2022-10-06T13:13:32.286Z,102655.39
2022-10-06T13:16:02.744Z,102655.60
2022-10-06T13:18:33.024Z,102654.24
2022-10-06T13:21:03.400Z,102655.43
2022-10-06T13:23:33.816Z,102651.17
2022-10-06T13:26:04.224Z,102654.18
2022-10-06T13:28:34.650Z,102652.37
2022-10-06T13:31:04.919Z,102654.93
2022-10-06T13:33:35.301Z,102652.99
2022-10-06T13:36:05.664Z,102654.56
2022-10-06T13:38:36.069Z,102651.09
2022-10-06T13:41:06.431Z,102655.85
2022-10-06T13:43:39.574Z,102654.85
2022-10-06T13:46:07.213Z,102655.99
2022-10-06T13:48:37.659Z,102655.07
2022-10-06T13:51:07.624Z,102654.89
2022-10-06T13:53:38.037Z,102655.40
2022-10-06T13:56:08.375Z,102655.30
2022-10-06T13:58:38.850Z,102657.95
2022-10-06T14:01:09.143Z,102662.25
2022-10-06T14:03:39.529Z,102657.10
2022-10-06T14:06:09.846Z,102659.95
2022-10-06T14:08:40.251Z,102660.77
2022-10-06T14:11:10.595Z,102654.99
2022-10-06T14:13:40.991Z,102657.66
2022-10-06T14:16:11.429Z,102661.64
2022-10-06T14:18:41.800Z,102658.75
2022-10-06T14:21:12.096Z,102657.28
2022-10-06T14:23:42.508Z,102658.99
2022-10-06T14:26:12.509Z,102657.12
2022-10-06T14:28:43.040Z,102654.07
2022-10-06T14:31:14.640Z,102657.80
2022-10-06T14:33:43.392Z,102657.46
2022-10-06T14:36:13.769Z,102652.72
2022-10-06T14:38:44.264Z,102660.83
2022-10-06T14:41:18.211Z,102656.46
2022-10-06T14:43:44.897Z,102652.18
2022-10-06T14:46:15.344Z,102656.02
2022-10-06T14:48:45.696Z,102659.01
2022-10-06T14:51:16.086Z,102656.18
2022-10-06T14:53:46.497Z,102656.63
2022-10-06T14:56:16.867Z,102656.91
2022-10-06T14:58:47.259Z,102659.05
2022-10-06T15:01:17.643Z,102661.60
2022-10-06T15:03:49.371Z,102659.72
2022-10-06T15:06:18.412Z,102655.61
2022-10-06T15:08:48.881Z,102651.61
2022-10-06T15:11:19.184Z,102656.32
2022-10-06T15:13:49.646Z,102657.37
2022-10-06T15:16:20.005Z,102656.96
2022-10-06T15:18:50.357Z,102659.71
2022-10-06T15:21:20.685Z,102654.29
2022-10-06T15:23:51.074Z,102653.34
2022-10-06T15:26:21.413Z,102654.85
2022-10-06T15:28:51.806Z,102658.55
2022-10-06T15:31:22.179Z,102658.25
2022-10-06T15:33:53.271Z,102656.17
2022-10-06T15:36:22.852Z,102649.79
2022-10-06T15:38:53.225Z,102646.51
2022-10-06T15:41:23.558Z,102648.58
2022-10-06T15:43:53.911Z,102651.49
2022-10-06T15:46:24.278Z,102653.30
2022-10-06T15:48:54.644Z,102653.48
2022-10-06T15:51:24.965Z,102657.95
2022-10-06T15:53:55.451Z,102657.65
2022-10-06T15:56:25.725Z,102659.81
2022-10-06T15:58:56.064Z,102662.43
2022-10-06T16:01:26.504Z,102659.69
2022-10-06T16:03:56.919Z,102659.10
2022-10-06T16:06:27.173Z,102659.76
2022-10-06T16:08:57.588Z,102654.53
2022-10-06T16:11:27.923Z,102652.05
2022-10-06T16:13:58.296Z,102652.02
2022-10-06T16:16:28.788Z,102650.20
2022-10-06T16:18:59.031Z,102642.36
2022-10-06T16:21:29.372Z,102649.65
2022-10-06T16:23:59.835Z,102653.50
2022-10-06T16:26:30.113Z,102651.85
2022-10-06T16:29:00.498Z,102656.55
2022-10-06T16:31:30.903Z,102657.52
2022-10-06T16:34:01.260Z,102656.65
2022-10-06T16:36:31.653Z,102658.46
2022-10-06T16:39:02.051Z,102659.67
2022-10-06T16:41:32.424Z,102658.75
2022-10-06T16:44:02.839Z,102661.57
2022-10-06T16:46:33.278Z,102663.01
2022-10-06T16:49:03.825Z,102668.07
2022-10-06T16:51:34.064Z,102668.47
2022-10-06T16:54:04.488Z,102672.21
2022-10-06T16:56:34.864Z,102674.35
2022-10-06T16:59:05.278Z,102672.84
2022-10-06T17:01:35.703Z,102672.74
2022-10-06T17:04:06.185Z,102679.56
2022-10-06T17:06:36.514Z,102680.21
2022-10-06T17:09:07.096Z,102679.37
2022-10-06T17:11:37.356Z,102673.53
2022-10-06T17:14:07.753Z,102676.99
2022-10-06T17:16:38.180Z,102676.77
2022-10-06T17:19:08.599Z,102678.42
2022-10-06T17:21:46.199Z,102681.91
2022-10-06T17:24:09.540Z,102680.55
2022-10-06T17:26:39.813Z,102681.29
2022-10-06T17:29:10.260Z,102681.39
2022-10-06T17:31:40.903Z,102683.71
2022-10-06T17:34:11.105Z,102686.72
2022-10-06T17:36:41.557Z,102686.68
2022-10-06T17:39:11.984Z,102689.03
2022-10-06T17:41:42.377Z,102688.61
2022-10-06T17:44:12.827Z,102685.64
2022-10-06T17:46:43.246Z,102683.51
2022-10-06T17:49:13.710Z,102683.26
2022-10-06T17:51:44.134Z,102687.11
2022-10-06T17:54:14.591Z,102688.49
2022-10-06T17:56:45.006Z,102684.79
2022-10-06T17:59:15.451Z,102687.26
2022-10-06T18:01:45.942Z,102688.45
2022-10-06T18:04:16.328Z,102688.90
2022-10-06T18:06:46.749Z,102689.01
2022-10-06T18:09:17.223Z,102690.39
2022-10-06T18:11:47.632Z,102692.24
2022-10-06T18:14:18.142Z,102693.37
2022-10-06T18:16:53.463Z,102694.39
2022-10-06T18:19:19.094Z,102694.65
2022-10-06T18:21:49.510Z,102691.82
2022-10-06T18:24:19.954Z,102688.84
2022-10-06T18:26:50.392Z,102688.30
2022-10-06T18:29:20.886Z,102691.99
2022-10-06T18:31:51.488Z,102690.27
2022-10-06T18:36:52.349Z,102688.78
2022-10-06T18:39:22.944Z,102688.97
2022-10-06T18:41:53.461Z,102690.88
2022-10-06T18:44:24.120Z,102689.12
2022-10-06T18:46:54.330Z,102694.45
2022-10-06T18:49:24.763Z,102694.59
2022-10-06T18:51:58.342Z,102699.23
2022-10-06T18:54:25.812Z,102702.36
2022-10-06T18:56:56.279Z,102700.56
2022-10-06T18:59:26.685Z,102699.43
2022-10-06T19:01:57.256Z,102696.93
2022-10-06T19:04:27.714Z,102696.32
2022-10-06T19:06:58.250Z,102695.26
2022-10-06T19:09:28.642Z,102694.95
2022-10-06T19:11:59.114Z,102694.60
2022-10-06T19:14:29.619Z,102699.99
2022-10-06T19:17:00.181Z,102707.32
2022-10-06T19:19:30.626Z,102704.87
2022-10-06T19:22:01.125Z,102709.33
2022-10-06T19:24:31.777Z,102709.92
2022-10-06T19:27:02.139Z,102706.68
2022-10-06T19:29:32.687Z,102701.56
2022-10-06T19:32:03.263Z,102704.80
2022-10-06T19:34:33.989Z,102707.08
2022-10-06T19:37:04.047Z,102708.93
2022-10-06T19:39:34.500Z,102706.43
2022-10-06T19:42:04.549Z,102707.02
2022-10-06T19:44:36.451Z,102703.42
2022-10-06T19:47:05.309Z,102703.24
2022-10-06T19:49:35.918Z,102700.59
2022-10-06T19:52:06.643Z,102701.68
2022-10-06T19:54:37.235Z,102699.71
2022-10-06T19:57:07.523Z,102697.92
2022-10-06T19:59:38.200Z,102694.84
2022-10-06T20:02:08.551Z,102693.07
2022-10-06T20:04:38.583Z,102693.76
2022-10-06T20:07:08.663Z,102694.54
2022-10-06T20:09:39.178Z,102694.68
2022-10-06T20:12:09.557Z,102694.32
2022-10-06T20:14:40.398Z,102695.75
2022-10-06T20:17:10.808Z,102698.10
2022-10-06T20:19:41.487Z,102696.45
2022-10-06T20:22:11.881Z,102696.77
2022-10-06T20:24:42.653Z,102694.59
2022-10-06T20:27:13.446Z,102694.54
2022-10-06T20:29:43.868Z,102694.11
2022-10-06T20:32:14.609Z,102692.50
2022-10-06T20:34:45.439Z,102692.36
2022-10-06T20:37:15.754Z,102687.56
2022-10-06T20:39:46.354Z,102688.88
2022-10-06T20:42:16.925Z,102691.44
2022-10-06T20:44:47.443Z,102689.90
2022-10-06T20:47:18.307Z,102687.64
2022-10-06T20:49:49.106Z,102684.00
2022-10-06T20:52:19.406Z,102680.98
2022-10-06T20:54:49.494Z,102681.62
2022-10-06T20:57:19.470Z,102676.93
2022-10-06T20:59:49.633Z,102675.07
2022-10-06T21:02:19.976Z,102673.05
2022-10-06T21:04:50.510Z,102671.19
2022-10-06T21:07:21.073Z,102668.63
2022-10-06T21:09:52.301Z,102668.41
2022-10-06T21:12:22.698Z,102663.19
2022-10-06T21:14:53.707Z,102660.48
2022-10-06T21:17:24.478Z,102656.72
2022-10-06T21:19:54.810Z,102659.15
2022-10-06T21:22:24.905Z,102660.74
2022-10-06T21:24:55.333Z,102655.24
2022-10-06T21:27:25.469Z,102654.68
2022-10-06T21:29:56.148Z,102652.77
2022-10-06T21:32:26.673Z,102651.78
2022-10-06T21:34:57.386Z,102653.26
2022-10-06T21:37:28.054Z,102648.40
2022-10-06T21:40:02.111Z,102650.32
2022-10-06T21:42:29.107Z,102645.89
2022-10-06T21:44:59.748Z,102642.73
2022-10-06T21:47:30.304Z,102639.30
2022-10-06T21:50:00.910Z,102639.21
2022-10-06T21:52:31.312Z,102639.01
2022-10-06T21:55:01.808Z,102635.34
2022-10-06T21:57:32.167Z,102631.83
2022-10-06T22:00:02.642Z,102631.36
2022-10-06T22:02:33.020Z,102625.95
2022-10-06T22:05:03.677Z,102624.84
2022-10-06T22:07:33.953Z,102627.49
2022-10-06T22:10:04.588Z,102626.98
2022-10-06T22:12:35.003Z,102624.88
2022-10-06T22:15:05.557Z,102622.81
2022-10-06T22:17:36.072Z,102617.88
2022-10-06T22:20:06.799Z,102612.84
2022-10-06T22:22:37.409Z,102613.68
2022-10-06T22:25:08.172Z,102607.87
2022-10-06T22:27:38.884Z,102608.09
2022-10-06T22:30:09.188Z,102611.62
2022-10-06T22:32:39.307Z,102607.94
2022-10-06T22:35:09.314Z,102609.22
2022-10-06T22:37:39.493Z,102602.71
2022-10-06T22:40:09.789Z,102599.15
2022-10-06T22:42:40.046Z,102595.42
2022-10-06T22:45:10.320Z,102595.93
2022-10-06T22:47:40.830Z,102593.47
2022-10-06T22:50:11.001Z,102592.58
2022-10-06T22:52:41.331Z,102588.63
2022-10-06T22:55:11.723Z,102583.66
2022-10-06T22:57:42.547Z,102581.58
2022-10-06T23:00:12.740Z,102575.98
2022-10-06T23:02:43.062Z,102574.76
2022-10-06T23:05:13.845Z,102571.55
2022-10-06T23:07:44.650Z,102569.04
2022-10-06T23:10:14.860Z,102565.59
2022-10-06T23:12:45.381Z,102564.97
2022-10-06T23:15:15.952Z,102560.98
2022-10-06T23:17:47.012Z,102560.30
2022-10-06T23:20:17.320Z,102554.72
2022-10-06T23:22:47.897Z,102554.23
2022-10-06T23:25:18.584Z,102550.73
2022-10-06T23:27:49.162Z,102549.75
2022-10-06T23:30:19.955Z,102545.05
2022-10-06T23:32:50.670Z,102541.02
2022-10-06T23:35:21.531Z,102534.94
2022-10-06T23:37:52.420Z,102530.95
2022-10-06T23:40:22.644Z,102528.16
2022-10-06T23:42:52.714Z,102530.49
2022-10-06T23:45:22.973Z,102526.58
2022-10-06T23:47:53.244Z,102526.46
2022-10-06T23:50:23.609Z,102527.51
2022-10-06T23:52:53.852Z,102522.18
2022-10-06T23:55:24.425Z,102519.61
2022-10-06T23:57:54.885Z,102515.92
